Time;durP1;ratioP1;P1;durP2;ratioP2;P2;SDS_P1;SDS_P2;PMS_P1;PMS_P2;Temp;Humidity;BMP_temperature;BMP_pressure;BME280_temperature;BME280_humidity;BME280_pressure;Samples;Min_cycle;Max_cycle;Signal;HPM_P1;HPM_P2
2021/06/03 00:01:52;;;;;;;5.28;4.88;;;;;;;19.71;28.44;101575.59;5046275;27;99621;-70
2021/06/03 00:04:19;;;;;;;5.45;4.80;;;;;;;19.65;28.13;101575.59;5046321;27;97783;-71
2021/06/03 00:06:48;;;;;;;4.97;4.55;;;;;;;19.60;28.42;101571.13;5046159;27;98750;-71
2021/06/03 00:09:15;;;;;;;5.55;5.10;;;;;;;19.59;28.17;101572.91;5043513;27;96877;-71
2021/06/03 00:11:43;;;;;;;5.18;4.78;;;;;;;19.59;28.26;101572.91;5042689;27;96891;-71
2021/06/03 00:14:11;;;;;;;6.03;5.53;;;;;;;19.61;28.20;101575.66;5041314;27;98073;-70
2021/06/03 00:16:38;;;;;;;6.70;5.40;;;;;;;19.59;28.68;101572.91;5042327;27;98041;-70
2021/06/03 00:19:08;;;;;;;7.40;5.65;;;;;;;19.56;28.54;101572.94;5042276;27;97720;-71
2021/06/03 00:21:37;;;;;;;5.25;4.75;;;;;;;19.55;28.54;101575.66;5040936;27;97698;-71
2021/06/03 00:24:06;;;;;;;5.55;4.95;;;;;;;19.53;28.54;101570.25;5026670;27;99437;-69
2021/06/03 00:26:34;;;;;;;5.57;5.07;;;;;;;19.52;28.53;101572.94;5042880;27;97685;-71
2021/06/03 00:29:03;;;;;;;4.90;4.43;;;;;;;19.48;28.75;101577.47;5044064;27;97232;-71
2021/06/03 00:31:30;;;;;;;5.30;4.90;;;;;;;19.48;28.65;101576.59;5043096;27;97842;-71
2021/06/03 00:33:58;;;;;;;5.90;5.35;;;;;;;19.43;28.37;101576.56;5046675;27;97933;-71
2021/06/03 00:36:25;;;;;;;5.10;4.70;;;;;;;19.41;28.74;101572.09;5043638;27;97932;-71
2021/06/03 00:38:52;;;;;;;5.70;5.18;;;;;;;19.37;28.55;101575.72;5045894;27;97201;-71
2021/06/03 00:41:21;;;;;;;6.72;5.57;;;;;;;19.35;28.63;101577.50;5043061;27;97288;-69
2021/06/03 00:43:49;;;;;;;5.88;5.40;;;;;;;19.30;28.70;101580.16;5060895;27;97783;-70
2021/06/03 00:46:17;;;;;;;5.82;5.32;;;;;;;19.30;28.87;101574.78;5041537;27;98964;-69
2021/06/03 00:48:44;;;;;;;5.97;5.47;;;;;;;19.28;28.84;101584.66;5046022;27;97051;-70
2021/06/03 00:51:12;;;;;;;6.25;5.60;;;;;;;19.25;28.53;101582.00;5041659;27;97796;-70
2021/06/03 00:53:42;;;;;;;6.05;5.45;;;;;;;19.19;28.91;101587.38;5044271;27;97651;-71
2021/06/03 00:56:12;;;;;;;5.22;4.80;;;;;;;19.17;28.92;101589.19;5039951;27;99087;-69
2021/06/03 00:58:40;;;;;;;5.80;5.30;;;;;;;19.13;29.02;101581.13;5026915;27;97939;-71
2021/06/03 01:01:14;;;;;;;6.38;5.35;;;;;;;19.09;28.88;101591.00;5025796;27;97310;-69
2021/06/03 01:03:41;;;;;;;5.90;5.18;;;;;;;19.10;28.95;101591.91;5024782;27;101817;-69
2021/06/03 01:06:10;;;;;;;6.70;5.53;;;;;;;19.07;29.18;101589.19;5038022;27;98138;-70
2021/06/03 01:08:41;;;;;;;5.75;5.20;;;;;;;19.05;29.09;101589.22;5036851;27;97522;-71
2021/06/03 01:11:14;;;;;;;6.38;5.75;;;;;;;19.06;29.26;101587.41;5043700;27;97856;-70
2021/06/03 01:13:50;;;;;;;5.63;5.00;;;;;;;19.03;28.91;101585.63;5042613;27;98607;-70
2021/06/03 01:16:21;;;;;;;6.43;5.82;;;;;;;19.01;29.17;101587.41;5024481;27;99268;-69
2021/06/03 01:18:49;;;;;;;6.03;5.53;;;;;;;18.97;29.01;101585.59;5021892;27;97728;-71
2021/06/03 01:21:22;;;;;;;5.55;5.15;;;;;;;18.94;29.27;101580.22;5042387;27;98116;-69
2021/06/03 01:23:58;;;;;;;5.53;5.13;;;;;;;18.91;29.64;101582.94;5038625;27;99199;-69
2021/06/03 01:26:27;;;;;;;6.63;5.80;;;;;;;18.90;29.51;101581.13;5040423;27;98835;-70
2021/06/03 01:28:55;;;;;;;6.50;5.93;;;;;;;18.86;29.63;101579.34;5045229;27;97279;-71
2021/06/03 01:31:23;;;;;;;6.22;5.82;;;;;;;18.80;29.83;101573.94;5043772;27;97047;-71
2021/06/03 01:33:50;;;;;;;5.97;5.35;;;;;;;18.77;29.81;101573.94;5043034;27;96867;-70
2021/06/03 01:36:18;;;;;;;6.70;6.05;;;;;;;18.74;29.59;101574.84;5042310;27;98762;-70
2021/06/03 01:38:46;;;;;;;7.47;6.13;;;;;;;18.67;29.69;101575.72;5027767;27;98768;-71
2021/06/03 01:41:14;;;;;;;6.50;5.70;;;;;;;18.62;29.88;101582.00;5044244;27;97894;-70
2021/06/03 01:43:46;;;;;;;6.20;5.70;;;;;;;18.59;29.77;101582.88;5024768;27;99340;-71
2021/06/03 01:46:15;;;;;;;6.65;5.45;;;;;;;18.55;29.78;101580.19;5041305;27;99720;-70
2021/06/03 01:48:43;;;;;;;5.90;5.25;;;;;;;18.53;29.87;101579.31;5040363;27;97234;-70
2021/06/03 01:51:35;;;;;;;7.05;6.38;;;;;;;18.53;29.99;101582.00;5041079;27;97940;-68
2021/06/03 01:55:17;;;;;;;6.78;5.90;;;;;;;18.48;29.65;101578.38;5042767;27;97891;-70
2021/06/03 01:58:59;;;;;;;6.72;5.75;;;;;;;18.44;29.79;101576.59;5043340;27;96759;-71
2021/06/03 02:01:27;;;;;;;6.93;6.07;;;;;;;18.41;29.66;101581.97;5020284;27;98491;-69
2021/06/03 02:03:54;;;;;;;7.53;6.53;;;;;;;18.40;29.84;101574.78;5041833;27;97259;-70
2021/06/03 02:06:23;;;;;;;6.95;6.32;;;;;;;18.36;29.84;101578.38;5040306;27;98879;-68
2021/06/03 02:08:54;;;;;;;7.25;6.07;;;;;;;18.34;29.91;101577.47;5024649;27;98296;-70
2021/06/03 02:11:22;;;;;;;7.05;6.45;;;;;;;18.31;29.99;101580.16;5022178;27;97135;-68
2021/06/03 02:13:57;;;;;;;7.15;6.45;;;;;;;18.30;29.96;101581.03;5023492;27;98074;-69
2021/06/03 02:17:18;;;;;;;7.40;6.18;;;;;;;18.25;30.13;101580.13;5041020;27;100393;-70
2021/06/03 02:20:36;;;;;;;7.35;6.05;;;;;;;18.25;30.00;101577.44;5042030;27;97540;-67
2021/06/03 02:24:20;;;;;;;6.90;6.28;;;;;;;18.22;29.95;101580.13;5043903;27;97232;-70
2021/06/03 02:28:03;;;;;;;7.10;6.40;;;;;;;18.15;29.99;101589.97;5042533;27;97493;-70
2021/06/03 02:31:45;;;;;;;6.88;6.28;;;;;;;18.07;29.91;101585.47;5042578;27;97388;-71
2021/06/03 02:35:28;;;;;;;7.07;6.47;;;;;;;18.05;29.99;101590.88;5042610;27;98583;-72
2021/06/03 02:39:10;;;;;;;8.02;6.45;;;;;;;18.00;30.02;101587.22;5041764;27;97409;-71
2021/06/03 02:42:52;;;;;;;6.82;6.20;;;;;;;17.98;29.95;101587.19;5042885;27;97483;-71
2021/06/03 02:46:35;;;;;;;7.63;6.90;;;;;;;17.93;30.10;101583.59;5041971;27;96845;-70
2021/06/03 02:50:20;;;;;;;9.27;7.70;;;;;;;17.86;30.22;101597.03;5042039;27;97668;-68
2021/06/03 02:54:05;;;;;;;7.72;6.65;;;;;;;17.80;30.29;101597.91;5043626;27;97389;-68
2021/06/03 02:57:47;;;;;;;9.73;7.38;;;;;;;17.78;30.28;101598.81;5040132;27;97445;-69
2021/06/03 03:01:29;;;;;;;8.15;7.30;;;;;;;17.78;30.33;101605.06;5043108;27;97101;-69
2021/06/03 03:05:12;;;;;;;9.98;8.23;;;;;;;17.76;30.32;101606.88;5041358;27;97643;-71
2021/06/03 03:08:55;;;;;;;13.13;11.15;;;;;;;17.73;30.34;101612.22;5042299;27;97524;-69
2021/06/03 03:12:38;;;;;;;9.60;8.68;;;;;;;17.69;30.36;101609.53;5041691;27;97651;-68
2021/06/03 03:16:20;;;;;;;8.23;7.43;;;;;;;17.66;30.24;101613.09;5040194;27;98014;-70
2021/06/03 03:20:01;;;;;;;7.85;7.15;;;;;;;17.62;30.42;101613.97;5043130;27;97047;-71
2021/06/03 03:23:42;;;;;;;7.32;6.72;;;;;;;17.59;30.47;101619.34;5041166;27;97981;-71
2021/06/03 03:27:24;;;;;;;7.88;7.18;;;;;;;17.54;30.67;101621.13;5045938;27;97680;-69
2021/06/03 03:29:53;;;;;;;7.72;7.03;;;;;;;17.56;30.64;101613.97;5045534;27;97534;-70
2021/06/03 03:32:20;;;;;;;8.43;7.57;;;;;;;17.57;30.72;101620.22;5044121;27;100062;-71
2021/06/03 03:34:48;;;;;;;8.05;7.13;;;;;;;17.58;30.65;101628.28;5041576;27;96803;-71
2021/06/03 03:37:16;;;;;;;18.80;8.65;;;;;;;17.52;30.66;101613.91;5025975;27;96953;-71
2021/06/03 03:39:44;;;;;;;7.95;7.25;;;;;;;17.52;30.95;101619.31;5043122;27;98766;-69
2021/06/03 03:42:11;;;;;;;9.80;7.93;;;;;;;17.52;30.98;101613.91;5044882;27;97838;-69
2021/06/03 03:44:39;;;;;;;8.38;7.65;;;;;;;17.50;30.85;101616.59;5044628;27;97207;-69
2021/06/03 03:47:09;;;;;;;8.02;6.85;;;;;;;17.49;31.10;101622.84;5042630;27;98730;-69
2021/06/03 03:49:40;;;;;;;8.70;7.35;;;;;;;17.48;30.96;101621.06;5022551;27;100792;-69
2021/06/03 03:52:11;;;;;;;7.75;7.13;;;;;;;17.49;31.09;101620.16;5022815;27;100414;-67
2021/06/03 03:54:39;;;;;;;8.05;7.35;;;;;;;17.51;30.89;101620.22;5044911;27;96997;-69
2021/06/03 03:57:07;;;;;;;9.07;8.10;;;;;;;17.52;31.13;101624.69;5043336;27;97220;-70
2021/06/03 03:59:36;;;;;;;8.82;7.70;;;;;;;17.52;31.02;101616.59;5025768;27;99438;-68
2021/06/03 04:02:04;;;;;;;8.90;7.95;;;;;;;17.55;30.99;101624.69;5038448;27;97276;-67
2021/06/03 04:04:34;;;;;;;9.13;6.93;;;;;;;17.57;31.06;101625.59;5026304;27;97471;-67
2021/06/03 04:07:04;;;;;;;8.48;7.68;;;;;;;17.55;31.13;101622.91;5036375;27;97361;-68
2021/06/03 04:09:32;;;;;;;9.98;8.88;;;;;;;17.56;31.07;101630.09;5023408;27;99383;-67
2021/06/03 04:12:01;;;;;;;9.63;7.85;;;;;;;17.59;31.01;101629.19;5036489;27;100557;-67
2021/06/03 04:14:31;;;;;;;10.32;7.40;;;;;;;17.57;31.23;101628.28;5021000;27;98595;-67
2021/06/03 04:16:59;;;;;;;10.63;9.60;;;;;;;17.58;31.16;101630.97;5037271;27;97331;-66
2021/06/03 04:19:27;;;;;;;12.50;9.88;;;;;;;17.59;31.04;101634.59;5039053;27;97727;-67
2021/06/03 04:21:58;;;;;;;10.32;8.10;;;;;;;17.58;31.35;101633.69;5042211;27;96998;-67
2021/06/03 04:24:27;;;;;;;9.18;8.38;;;;;;;17.60;31.20;101631.91;5029209;27;97355;-66
2021/06/03 04:26:55;;;;;;;9.10;7.85;;;;;;;17.62;31.00;101634.63;5043709;27;97590;-67
2021/06/03 04:29:22;;;;;;;8.57;7.75;;;;;;;17.62;31.05;101637.31;5025618;27;99413;-67
2021/06/03 04:31:49;;;;;;;9.48;7.78;;;;;;;17.65;31.24;101640.94;5042777;27;97599;-67
2021/06/03 04:34:17;;;;;;;8.35;7.55;;;;;;;17.67;31.23;101644.53;5043731;27;97745;-67
2021/06/03 04:36:44;;;;;;;8.68;7.75;;;;;;;17.68;31.21;101638.25;5042081;27;97664;-68
2021/06/03 04:39:13;;;;;;;9.55;8.57;;;;;;;17.72;31.07;101636.47;5041520;27;98793;-68
2021/06/03 04:41:40;;;;;;;11.57;9.52;;;;;;;17.71;31.18;101646.31;5039962;27;99603;-67
2021/06/03 04:44:58;;;;;;;11.63;9.95;;;;;;;17.77;31.23;101640.06;5042424;27;98039;-67
2021/06/03 04:48:41;;;;;;;9.05;8.25;;;;;;;17.83;31.06;101635.63;5045366;27;97606;-70
2021/06/03 04:51:09;;;;;;;8.73;7.82;;;;;;;17.86;31.07;101637.41;5045990;27;100651;-69
2021/06/03 04:53:36;;;;;;;8.27;7.40;;;;;;;17.91;31.05;101652.72;5027762;27;98853;-68
2021/06/03 04:56:05;;;;;;;8.48;7.18;;;;;;;17.97;31.14;101647.38;5042942;27;97366;-69
2021/06/03 04:58:32;;;;;;;9.65;8.65;;;;;;;18.02;31.01;101653.66;5045154;27;97663;-68
2021/06/03 05:00:59;;;;;;;16.05;11.18;;;;;;;18.07;30.85;101653.72;5042182;27;97752;-68
2021/06/03 05:03:27;;;;;;;13.40;10.07;;;;;;;18.14;30.93;101654.63;5042331;27;100517;-68
2021/06/03 05:05:54;;;;;;;8.32;7.47;;;;;;;18.19;31.05;101655.56;5042233;27;96946;-69
2021/06/03 05:08:21;;;;;;;8.75;7.93;;;;;;;18.23;31.15;101654.69;5043231;27;97595;-69
2021/06/03 05:10:49;;;;;;;10.70;7.82;;;;;;;18.29;30.76;101646.63;5043586;27;98655;-69
2021/06/03 05:13:17;;;;;;;8.90;7.75;;;;;;;18.36;30.85;101651.13;5044297;27;97726;-69
2021/06/03 05:15:45;;;;;;;9.18;8.23;;;;;;;18.42;30.68;101653.84;5043413;27;96805;-69
2021/06/03 05:18:13;;;;;;;8.73;7.93;;;;;;;18.39;30.83;101653.81;5044342;27;97187;-69
2021/06/03 05:20:41;;;;;;;8.85;8.05;;;;;;;18.45;30.78;101656.53;5041223;27;97918;-69
2021/06/03 05:23:08;;;;;;;8.40;7.63;;;;;;;18.50;30.79;101652.97;5041535;27;97782;-69
2021/06/03 05:25:35;;;;;;;9.20;8.30;;;;;;;18.54;30.79;101657.47;5042811;27;97253;-68
2021/06/03 05:28:03;;;;;;;9.43;7.80;;;;;;;18.56;30.71;101655.69;5041698;27;98229;-68
2021/06/03 05:30:33;;;;;;;10.75;7.28;;;;;;;18.59;30.70;101660.16;5041781;27;99327;-69
2021/06/03 05:33:00;;;;;;;10.80;7.72;;;;;;;18.63;30.82;101651.19;5042736;27;101548;-69
2021/06/03 05:35:28;;;;;;;8.07;7.38;;;;;;;18.67;30.67;101658.38;5043899;27;97156;-68
2021/06/03 05:37:56;;;;;;;10.55;7.88;;;;;;;18.67;30.36;101658.38;5043318;27;97699;-69
2021/06/03 05:40:26;;;;;;;8.40;7.60;;;;;;;18.69;30.29;101665.63;5042507;27;96885;-69
2021/06/03 05:42:54;;;;;;;15.95;12.18;;;;;;;18.70;30.49;101666.50;5042884;27;99925;-69
2021/06/03 05:45:23;;;;;;;10.90;8.50;;;;;;;18.75;30.66;101684.50;5040138;27;97458;-69
2021/06/03 05:47:52;;;;;;;8.30;7.50;;;;;;;18.77;30.44;101668.31;5043190;27;97396;-69
2021/06/03 05:50:23;;;;;;;12.70;7.45;;;;;;;18.80;30.34;101669.25;5041868;27;97653;-69
2021/06/03 05:52:51;;;;;;;8.77;7.88;;;;;;;18.82;30.47;101666.56;5040155;27;99335;-69
2021/06/03 05:55:21;;;;;;;8.55;6.90;;;;;;;18.86;30.37;101668.34;5040221;27;97937;-69
2021/06/03 05:57:49;;;;;;;9.65;7.05;;;;;;;18.90;30.39;101667.44;5041950;27;97474;-69
2021/06/03 06:00:20;;;;;;;9.20;7.57;;;;;;;18.97;30.38;101670.16;5042304;27;99614;-70
2021/06/03 06:02:55;;;;;;;8.23;7.28;;;;;;;19.01;30.41;101684.53;5039833;27;99322;-69
2021/06/03 06:08:09;;;;;;;7.63;6.75;;;;;;;19.12;30.12;101682.75;5040979;27;97027;-69
2021/06/03 06:10:38;;;;;;;9.75;7.68;;;;;;;19.20;29.78;101680.03;5040381;27;97794;-69
2021/06/03 06:13:06;;;;;;;8.25;6.78;;;;;;;19.25;29.84;101689.03;5040865;27;98047;-69
2021/06/03 06:15:34;;;;;;;9.98;7.38;;;;;;;19.32;29.68;101693.56;5041460;27;97445;-68
2021/06/03 06:18:04;;;;;;;6.78;6.18;;;;;;;19.40;29.65;101689.97;5041026;27;97509;-69
2021/06/03 06:20:31;;;;;;;6.10;5.57;;;;;;;19.47;29.84;101690.84;5042869;27;98610;-68
2021/06/03 06:22:59;;;;;;;8.35;7.55;;;;;;;19.55;29.63;101694.47;5042168;27;98537;-68
2021/06/03 06:25:27;;;;;;;19.98;13.27;;;;;;;19.61;29.87;101694.47;5037701;27;97619;-68
2021/06/03 06:27:55;;;;;;;18.10;13.32;;;;;;;19.64;29.39;101689.94;5040501;27;97279;-68
2021/06/03 06:30:24;;;;;;;10.18;7.93;;;;;;;19.73;29.81;101694.44;5023232;27;99959;-69
2021/06/03 06:32:52;;;;;;;7.88;7.07;;;;;;;19.77;29.69;101697.09;5041130;27;99305;-68
2021/06/03 06:35:20;;;;;;;8.23;6.65;;;;;;;19.85;29.58;101698.00;5043918;27;97725;-68
2021/06/03 06:37:48;;;;;;;6.75;6.05;;;;;;;19.92;29.62;101707.91;5043878;27;97814;-68
2021/06/03 06:40:15;;;;;;;9.95;6.20;;;;;;;19.99;29.13;101695.31;5042563;27;99530;-69
2021/06/03 06:42:43;;;;;;;6.22;5.45;;;;;;;20.07;29.01;101706.06;5040468;27;99227;-67
2021/06/03 06:45:11;;;;;;;6.78;6.18;;;;;;;20.10;29.26;101706.97;5022456;27;98018;-68
2021/06/03 06:47:39;;;;;;;6.85;6.13;;;;;;;20.15;29.43;101701.53;5042173;27;97883;-69
2021/06/03 06:50:08;;;;;;;10.05;6.07;;;;;;;20.23;29.13;101708.69;5041140;27;97897;-69
2021/06/03 06:52:37;;;;;;;12.57;8.02;;;;;;;20.25;28.69;101708.72;5040877;27;98512;-69
2021/06/03 06:55:05;;;;;;;8.00;7.28;;;;;;;20.27;29.06;101707.78;5041393;27;97955;-68
2021/06/03 06:57:33;;;;;;;7.45;6.38;;;;;;;20.33;28.60;101714.97;5040818;27;97296;-69
2021/06/03 07:00:01;;;;;;;9.73;8.27;;;;;;;20.38;28.60;101707.72;5025129;27;99407;-68
2021/06/03 07:02:29;;;;;;;10.07;8.43;;;;;;;20.42;28.87;101707.72;5046195;27;97688;-69
2021/06/03 07:04:57;;;;;;;9.55;7.70;;;;;;;20.48;28.47;101699.59;5026316;27;96834;-70
2021/06/03 07:07:24;;;;;;;11.82;7.90;;;;;;;20.50;28.92;101700.44;5044426;27;97857;-69
2021/06/03 07:09:53;;;;;;;8.38;7.55;;;;;;;20.59;28.34;101703.19;5023896;27;99489;-70
2021/06/03 07:12:20;;;;;;;11.95;7.63;;;;;;;20.66;28.75;101709.44;5045812;27;97931;-69
2021/06/03 07:14:49;;;;;;;9.05;6.75;;;;;;;20.70;28.51;101713.94;5044664;27;97559;-70
2021/06/03 07:17:17;;;;;;;9.55;6.43;;;;;;;20.77;28.62;101710.28;5045325;27;98052;-69
2021/06/03 07:19:44;;;;;;;6.50;5.90;;;;;;;20.83;28.16;101715.66;5044314;27;99460;-70
2021/06/03 07:22:11;;;;;;;6.10;5.60;;;;;;;20.92;28.49;101707.47;5044017;27;99260;-69
2021/06/03 07:24:40;;;;;;;16.55;11.60;;;;;;;21.02;28.25;101711.91;5044138;27;96969;-69
2021/06/03 07:27:09;;;;;;;10.68;8.63;;;;;;;21.13;28.33;101707.34;5044885;27;98055;-69
2021/06/03 07:29:36;;;;;;;6.57;5.97;;;;;;;21.21;27.92;101700.06;5044217;27;99865;-69
2021/06/03 07:32:05;;;;;;;6.38;5.78;;;;;;;21.17;28.04;101703.69;5045475;27;97202;-71
2021/06/03 07:34:33;;;;;;;6.63;5.60;;;;;;;21.23;28.32;101695.53;5044642;27;97927;-70
2021/06/03 07:37:01;;;;;;;10.15;6.28;;;;;;;21.33;28.06;101693.63;5046316;27;98288;-69
2021/06/03 07:39:28;;;;;;;5.68;5.18;;;;;;;21.42;28.19;101698.97;5043382;27;100031;-69
2021/06/03 07:41:56;;;;;;;18.15;13.50;;;;;;;21.48;27.90;101697.09;5042568;27;99267;-69
2021/06/03 07:44:24;;;;;;;10.13;8.18;;;;;;;21.54;27.72;101694.31;5043763;27;97765;-69
2021/06/03 07:46:52;;;;;;;6.50;5.43;;;;;;;21.64;27.83;101701.47;5045145;27;97171;-69
2021/06/03 07:49:19;;;;;;;6.20;5.63;;;;;;;21.72;27.84;101705.03;5044252;27;99359;-69
2021/06/03 07:51:47;;;;;;;5.47;5.07;;;;;;;21.82;27.76;101697.69;5044222;27;100004;-70
2021/06/03 07:54:14;;;;;;;6.70;4.95;;;;;;;21.92;27.50;101696.69;5043424;27;97838;-69
2021/06/03 07:56:42;;;;;;;5.40;5.00;;;;;;;21.97;27.47;101693.91;5042823;27;97306;-68
2021/06/03 07:59:09;;;;;;;7.45;5.35;;;;;;;22.00;27.38;101691.19;5044031;27;99601;-69
2021/06/03 08:01:38;;;;;;;4.93;4.57;;;;;;;22.04;27.47;101695.63;5048198;27;99203;-69
2021/06/03 08:04:05;;;;;;;6.05;5.18;;;;;;;22.07;27.24;101703.75;5045166;27;97546;-69
2021/06/03 08:06:32;;;;;;;5.75;5.25;;;;;;;22.16;27.28;101700.91;5044579;27;97339;-68
2021/06/03 08:09:00;;;;;;;7.45;5.07;;;;;;;22.19;27.17;101696.34;5045900;27;97666;-69
2021/06/03 08:11:27;;;;;;;13.00;10.32;;;;;;;22.22;27.23;101695.44;5026256;27;99164;-69
2021/06/03 08:13:55;;;;;;;7.35;6.28;;;;;;;22.30;27.19;101694.44;5042736;27;97155;-68
2021/06/03 08:16:22;;;;;;;5.65;5.20;;;;;;;22.39;27.14;101699.75;5045506;27;97749;-69
2021/06/03 08:18:52;;;;;;;5.35;4.97;;;;;;;22.49;26.96;101697.81;5045250;27;97958;-69
2021/06/03 08:21:19;;;;;;;4.57;4.28;;;;;;;22.53;26.95;101691.44;5043190;27;97621;-69
2021/06/03 08:23:47;;;;;;;6.93;5.00;;;;;;;22.53;26.90;101697.72;5043123;27;97286;-69
2021/06/03 08:26:14;;;;;;;5.28;4.88;;;;;;;22.62;26.82;101699.44;5025786;27;97817;-69
2021/06/03 08:28:42;;;;;;;5.70;5.18;;;;;;;22.69;26.73;101699.31;5042498;27;97697;-69
2021/06/03 08:31:09;;;;;;;5.53;5.07;;;;;;;22.78;26.67;101692.88;5041656;27;99126;-69
2021/06/03 08:33:37;;;;;;;8.45;5.10;;;;;;;22.83;26.61;101691.00;5043951;27;96921;-69
2021/06/03 08:36:06;;;;;;;5.53;5.05;;;;;;;22.88;26.31;101698.16;5043402;27;97243;-69
2021/06/03 08:38:35;;;;;;;5.55;4.93;;;;;;;22.94;26.54;101702.59;5044630;27;99048;-69
2021/06/03 08:41:02;;;;;;;8.30;5.80;;;;;;;23.03;26.11;101710.59;5044667;27;97715;-69
2021/06/03 08:43:32;;;;;;;5.75;5.05;;;;;;;23.11;26.17;101705.94;5043848;27;96921;-69
2021/06/03 08:46:01;;;;;;;9.13;4.80;;;;;;;23.16;26.01;101698.63;5043396;27;97272;-69
2021/06/03 08:48:28;;;;;;;4.80;4.40;;;;;;;23.27;26.01;101704.78;5042663;27;97853;-68
2021/06/03 08:50:58;;;;;;;5.75;5.10;;;;;;;23.35;26.02;101700.13;5044407;27;97802;-69
2021/06/03 08:53:27;;;;;;;10.35;7.00;;;;;;;23.45;26.06;101690.91;5045994;27;97439;-69
2021/06/03 08:56:18;;;;;;;7.55;6.75;;;;;;;23.53;25.67;101690.78;5044834;27;96918;-68
2021/06/03 08:58:46;;;;;;;5.65;5.18;;;;;;;23.57;25.91;101687.94;5043910;27;100888;-69
2021/06/03 09:01:14;;;;;;;4.80;4.40;;;;;;;23.63;25.59;101686.94;5044234;27;97740;-69
2021/06/03 09:03:43;;;;;;;5.00;4.60;;;;;;;23.67;25.44;101688.69;5044531;27;97690;-69
2021/06/03 09:06:13;;;;;;;4.90;4.60;;;;;;;23.70;25.38;101694.06;5042637;27;97291;-69
2021/06/03 09:08:47;;;;;;;5.22;4.55;;;;;;;23.76;25.63;101689.41;5044698;27;100118;-69
2021/06/03 09:11:16;;;;;;;4.45;4.15;;;;;;;23.81;25.71;101684.78;5043097;27;98087;-69
2021/06/03 09:13:47;;;;;;;5.25;4.00;;;;;;;23.91;25.09;101685.53;5042827;27;97623;-69
2021/06/03 09:16:18;;;;;;;5.75;5.15;;;;;;;23.72;25.23;101693.09;5041492;27;96871;-69
2021/06/03 09:18:47;;;;;;;5.78;5.22;;;;;;;23.69;24.80;101687.75;5041155;27;98359;-69
2021/06/03 09:21:16;;;;;;;8.88;5.20;;;;;;;23.70;25.02;101689.53;5042106;27;96967;-69
2021/06/03 09:23:46;;;;;;;6.15;5.55;;;;;;;23.80;24.74;101685.72;5040754;27;97760;-69
2021/06/03 09:26:14;;;;;;;6.65;5.43;;;;;;;23.88;24.47;101682.81;5042026;27;97809;-69
2021/06/03 09:28:42;;;;;;;5.45;4.75;;;;;;;23.98;24.17;101686.28;5040939;27;98908;-69
2021/06/03 09:31:16;;;;;;;5.38;4.88;;;;;;;24.05;23.88;101682.50;5042073;27;97628;-69
2021/06/03 09:33:58;;;;;;;8.73;7.73;;;;;;;24.16;24.41;101680.47;5041877;27;96681;-68
2021/06/03 09:36:40;;;;;;;6.28;5.63;;;;;;;24.22;24.44;101677.63;5039345;27;97304;-70
2021/06/03 09:39:18;;;;;;;6.40;5.30;;;;;;;24.34;24.22;101683.69;5039184;27;99488;-69
2021/06/03 09:41:48;;;;;;;5.60;5.10;;;;;;;24.42;23.96;101687.19;5041043;27;97189;-69
2021/06/03 09:44:19;;;;;;;5.75;5.25;;;;;;;24.50;23.99;101673.44;5039750;27;97403;-69
2021/06/03 09:46:52;;;;;;;5.87;5.33;;;;;;;24.57;23.27;101685.97;5039722;27;97111;-68
2021/06/03 09:49:25;;;;;;;8.02;5.50;;;;;;;24.62;23.45;101675.84;5042544;27;99700;-68
2021/06/03 09:51:56;;;;;;;7.10;5.60;;;;;;;24.70;23.07;101671.16;5040842;27;97818;-69
2021/06/03 09:54:25;;;;;;;5.85;5.25;;;;;;;24.80;23.16;101681.78;5043022;27;96828;-70
2021/06/03 09:56:55;;;;;;;5.53;5.03;;;;;;;24.87;22.62;101681.59;5044049;27;97188;-72
2021/06/03 09:59:25;;;;;;;5.90;5.32;;;;;;;24.92;22.58;101676.97;5040918;27;97860;-69
2021/06/03 10:01:59;;;;;;;7.70;5.47;;;;;;;24.96;23.02;101676.88;5039990;27;97686;-68
2021/06/03 10:04:32;;;;;;;5.37;4.87;;;;;;;25.05;22.62;101684.81;5039883;27;97935;-68
2021/06/03 10:07:16;;;;;;;5.43;4.93;;;;;;;25.11;22.93;101687.41;5042078;27;97664;-69
2021/06/03 10:10:05;;;;;;;5.32;4.90;;;;;;;25.22;22.79;101676.22;5037917;27;100832;-69
2021/06/03 10:12:36;;;;;;;5.67;5.17;;;;;;;25.27;22.58;101680.63;5040455;27;98544;-68
2021/06/03 10:15:09;;;;;;;5.77;5.33;;;;;;;25.32;22.85;101686.84;5023886;27;97922;-69
2021/06/03 10:17:38;;;;;;;7.47;5.65;;;;;;;25.32;23.13;101692.28;5041597;27;97454;-69
2021/06/03 10:20:09;;;;;;;9.52;8.55;;;;;;;25.38;22.66;101683.97;5039458;27;98482;-69
2021/06/03 10:23:06;;;;;;;8.75;7.72;;;;;;;25.43;22.96;101678.41;5039696;27;97593;-69
2021/06/03 10:25:36;;;;;;;7.13;5.95;;;;;;;25.45;23.26;101680.19;5039794;27;98278;-69
2021/06/03 10:28:06;;;;;;;9.43;8.35;;;;;;;25.49;22.63;101675.53;5041655;27;97850;-69
2021/06/03 10:30:35;;;;;;;9.38;8.50;;;;;;;25.52;23.27;101679.06;5039339;27;100324;-69
2021/06/03 10:33:05;;;;;;;6.45;5.85;;;;;;;25.58;22.76;101680.75;5040190;27;99777;-69
2021/06/03 10:35:34;;;;;;;6.35;5.75;;;;;;;25.63;23.21;101673.34;5042319;27;96883;-69
2021/06/03 10:38:04;;;;;;;7.07;5.78;;;;;;;25.66;22.64;101676.00;5023248;27;97051;-69
2021/06/03 10:40:33;;;;;;;5.70;5.20;;;;;;;25.88;22.62;101679.91;5041695;27;99735;-69
2021/06/03 10:43:05;;;;;;;6.07;5.60;;;;;;;25.78;23.02;101678.38;5040856;27;101038;-69
2021/06/03 10:45:34;;;;;;;6.28;5.68;;;;;;;26.00;22.76;101675.94;5042610;27;97604;-70
2021/06/03 10:48:02;;;;;;;9.60;7.90;;;;;;;26.07;22.68;101672.13;5025595;27;97143;-69
2021/06/03 10:50:32;;;;;;;7.82;7.13;;;;;;;26.14;22.85;101685.53;5041267;27;100737;-69
2021/06/03 10:53:05;;;;;;;5.97;5.30;;;;;;;26.15;22.72;101667.31;5041159;27;98565;-69
2021/06/03 10:55:34;;;;;;;5.45;5.05;;;;;;;26.17;22.47;101676.38;5042010;27;96819;-69
2021/06/03 10:58:04;;;;;;;5.55;5.05;;;;;;;26.17;22.86;101670.91;5043352;27;97209;-70
2021/06/03 11:00:36;;;;;;;8.15;6.15;;;;;;;26.23;22.71;101665.28;5041143;27;97761;-69
2021/06/03 11:03:05;;;;;;;13.48;9.68;;;;;;;26.23;22.74;101668.91;5042525;27;98030;-69
2021/06/03 11:05:34;;;;;;;6.75;5.57;;;;;;;26.33;22.52;101669.50;5044426;27;97406;-69
2021/06/03 11:08:24;;;;;;;5.20;4.80;;;;;;;26.33;22.79;101670.41;5043520;27;96918;-69
2021/06/03 11:10:52;;;;;;;6.47;5.22;;;;;;;26.34;22.52;101669.44;5042519;27;97742;-69
2021/06/03 11:13:22;;;;;;;5.65;5.25;;;;;;;26.12;22.95;101673.78;5040696;27;99003;-70
2021/06/03 11:16:06;;;;;;;6.60;5.87;;;;;;;26.05;23.26;101665.81;5039924;27;96944;-69
2021/06/03 11:19:13;;;;;;;8.20;6.25;;;;;;;26.19;22.76;101666.31;5039628;27;97033;-69
2021/06/03 11:22:05;;;;;;;6.13;5.72;;;;;;;26.45;22.67;101661.00;5041838;27;99363;-70
2021/06/03 11:24:46;;;;;;;5.45;4.93;;;;;;;26.47;22.89;101657.25;5041053;27;97814;-70
2021/06/03 11:27:21;;;;;;;7.97;6.10;;;;;;;26.29;22.76;101659.66;5039964;27;97926;-69
2021/06/03 11:30:01;;;;;;;5.97;5.50;;;;;;;26.32;22.59;101662.28;5040948;27;96905;-70
2021/06/03 11:32:31;;;;;;;34.30;22.90;;;;;;;26.52;22.84;101651.66;5041000;27;101015;-69
2021/06/03 11:35:01;;;;;;;7.60;6.90;;;;;;;26.35;22.71;101663.06;5041103;27;97644;-69
2021/06/03 11:37:44;;;;;;;6.47;5.78;;;;;;;26.40;22.79;101661.09;5040952;27;97366;-69
2021/06/03 11:40:15;;;;;;;5.70;5.25;;;;;;;26.45;22.85;101658.25;5040404;27;97573;-69
2021/06/03 11:42:45;;;;;;;5.80;5.20;;;;;;;26.73;22.72;101650.97;5041776;27;99800;-69
2021/06/03 11:45:23;;;;;;;7.30;5.35;;;;;;;26.79;22.38;101650.78;5041556;27;97685;-69
2021/06/03 11:48:13;;;;;;;6.13;5.32;;;;;;;26.61;22.49;101645.91;5043525;27;97746;-69
2021/06/03 11:50:45;;;;;;;7.80;5.68;;;;;;;26.64;22.48;101643.06;5041499;27;97684;-70
2021/06/03 11:53:17;;;;;;;6.43;5.20;;;;;;;26.89;22.34;101640.44;5045636;27;98040;-70
2021/06/03 11:55:48;;;;;;;5.32;4.40;;;;;;;26.97;22.49;101644.75;5044119;27;99280;-69
2021/06/03 11:58:18;;;;;;;9.57;7.28;;;;;;;26.99;22.23;101637.38;5029366;27;97164;-69
2021/06/03 12:00:50;;;;;;;7.03;6.32;;;;;;;27.04;22.36;101637.22;5046429;27;97544;-70
2021/06/03 12:03:24;;;;;;;5.30;4.80;;;;;;;27.05;22.20;101639.00;5035090;27;97927;-70
2021/06/03 12:05:55;;;;;;;5.13;4.55;;;;;;;27.08;22.26;101641.63;5043765;27;97713;-70
2021/06/03 12:08:48;;;;;;;6.13;5.50;;;;;;;27.13;22.24;101634.19;5039474;27;97233;-70